Time;durP1;ratioP1;P1;durP2;ratioP2;P2;SDS_P1;SDS_P2;PMS_P1;PMS_P2;Temp;Humidity;BMP_temperature;BMP_pressure;BME280_temperature;BME280_humidity;BME280_pressure;Samples;Min_cycle;Max_cycle;Signal;HPM_P1;HPM_P2
2023/12/24 00:03:49;;;;;;;5.15;1.30;;;9.60;99.90;;;;;;7360496;32;20133;-55
2023/12/24 00:07:51;;;;;;;4.30;1.17;;;9.60;99.90;;;;;;7344043;32;20126;-55
2023/12/24 00:11:53;;;;;;;5.40;1.12;;;9.60;99.90;;;;;;7356569;32;20123;-55
2023/12/24 00:15:55;;;;;;;9.05;1.20;;;9.60;99.90;;;;;;7361468;32;20208;-54
2023/12/24 00:19:57;;;;;;;7.97;1.20;;;9.70;99.90;;;;;;7361255;32;20106;-53
2023/12/24 00:23:59;;;;;;;4.40;1.35;;;9.70;99.90;;;;;;7356657;32;20474;-54
2023/12/24 00:28:01;;;;;;;7.57;1.42;;;9.70;99.90;;;;;;7348270;32;20328;-54
2023/12/24 00:32:03;;;;;;;6.55;1.20;;;9.60;99.90;;;;;;7358440;32;20111;-55
2023/12/24 00:36:05;;;;;;;2.75;1.12;;;9.70;99.90;;;;;;7360037;32;20212;-55
2023/12/24 00:40:08;;;;;;;4.78;1.27;;;9.70;99.90;;;;;;7351996;32;20474;-56
2023/12/24 00:44:09;;;;;;;2.53;0.80;;;9.70;99.90;;;;;;7348455;32;20244;-55
2023/12/24 00:48:11;;;;;;;3.33;1.08;;;9.70;99.90;;;;;;7364187;32;20234;-56
2023/12/24 00:52:13;;;;;;;4.68;0.90;;;9.70;99.90;;;;;;7364033;32;20519;-55
2023/12/24 00:56:15;;;;;;;4.75;0.98;;;9.70;99.90;;;;;;7364670;32;20289;-55
2023/12/24 01:00:17;;;;;;;3.87;1.00;;;9.70;99.90;;;;;;7342718;32;21085;-54
2023/12/24 01:04:22;;;;;;;5.57;1.10;;;9.70;99.90;;;;;;7337543;32;20150;-55
2023/12/24 01:08:24;;;;;;;3.78;1.15;;;9.80;99.90;;;;;;7354046;32;20194;-54
2023/12/24 01:12:26;;;;;;;3.78;0.98;;;9.70;99.90;;;;;;7360563;32;20198;-54
2023/12/24 01:16:28;;;;;;;3.08;0.90;;;9.70;99.90;;;;;;7350953;32;20616;-55
2023/12/24 01:20:30;;;;;;;8.65;1.20;;;9.60;99.90;;;;;;7349497;32;20171;-55
2023/12/24 01:24:32;;;;;;;3.55;1.17;;;9.50;99.90;;;;;;7352993;32;20189;-55
2023/12/24 01:28:34;;;;;;;8.65;1.30;;;9.40;99.90;;;;;;7362791;32;20126;-55
2023/12/24 01:32:36;;;;;;;2.37;1.15;;;9.30;99.90;;;;;;7341462;32;20209;-54
2023/12/24 01:36:39;;;;;;;8.38;1.23;;;9.30;99.90;;;;;;7353946;32;20125;-55
2023/12/24 01:40:46;;;;;;;2.80;0.90;;;9.30;99.90;;;;;;7355535;32;20135;-55
2023/12/24 01:44:47;;;;;;;4.68;0.98;;;9.30;99.90;;;;;;7356929;32;20252;-56
2023/12/24 01:48:50;;;;;;;2.40;0.60;;;9.40;99.90;;;;;;7344509;32;20315;-54
2023/12/24 01:52:53;;;;;;;4.37;0.90;;;9.50;99.90;;;;;;7348705;32;20178;-54
2023/12/24 01:56:55;;;;;;;6.28;0.80;;;9.50;99.90;;;;;;7359753;32;20250;-54
2023/12/24 02:00:57;;;;;;;4.75;0.82;;;9.60;99.90;;;;;;7342080;32;20142;-55
2023/12/24 02:04:59;;;;;;;2.67;1.00;;;9.60;99.90;;;;;;7358349;32;20125;-55
2023/12/24 02:09:01;;;;;;;3.22;0.77;;;9.70;99.90;;;;;;7355459;32;20121;-56
2023/12/24 02:13:03;;;;;;;2.85;0.68;;;9.70;99.90;;;;;;7342914;32;20109;-55
2023/12/24 02:17:06;;;;;;;6.70;0.85;;;9.70;99.90;;;;;;7359278;32;20237;-55
2023/12/24 02:21:08;;;;;;;4.47;0.80;;;9.70;99.90;;;;;;7363212;32;20202;-56
2023/12/24 02:25:10;;;;;;;4.85;0.82;;;9.70;99.90;;;;;;7359955;32;20158;-54
2023/12/24 02:29:22;;;;;;;1.67;0.52;;;9.80;99.90;;;;;;7363543;32;20123;-56
2023/12/24 02:33:33;;;;;;;4.28;0.62;;;9.80;99.90;;;;;;7357336;32;20429;-55
2023/12/24 02:37:35;;;;;;;2.40;0.70;;;9.70;99.90;;;;;;7359467;32;20466;-55
2023/12/24 02:41:36;;;;;;;3.75;0.88;;;9.70;99.90;;;;;;7356407;32;20251;-56
2023/12/24 02:45:40;;;;;;;2.72;0.95;;;9.70;99.90;;;;;;7354831;32;20872;-55
2023/12/24 02:49:42;;;;;;;3.70;0.85;;;9.60;99.90;;;;;;7365488;32;20289;-55
2023/12/24 02:53:44;;;;;;;3.42;0.93;;;9.50;99.90;;;;;;7356542;32;20241;-55
2023/12/24 02:57:46;;;;;;;2.37;1.02;;;9.40;99.90;;;;;;7360674;32;20642;-55
2023/12/24 03:01:48;;;;;;;1.33;0.50;;;9.30;99.90;;;;;;7363877;32;20133;-55
2023/12/24 03:05:50;;;;;;;5.62;0.70;;;9.10;99.90;;;;;;7359292;32;20125;-55
2023/12/24 03:09:52;;;;;;;3.33;0.73;;;9.10;99.90;;;;;;7365775;32;20106;-55
2023/12/24 03:13:54;;;;;;;2.40;0.80;;;9.00;99.90;;;;;;7360612;32;20586;-55
2023/12/24 03:17:56;;;;;;;2.08;0.60;;;9.00;99.90;;;;;;7358423;32;20232;-55
2023/12/24 03:21:58;;;;;;;1.92;0.62;;;9.00;99.90;;;;;;7361821;32;20211;-55
2023/12/24 03:26:00;;;;;;;0.65;0.55;;;8.90;99.90;;;;;;7368499;32;20115;-54
2023/12/24 03:30:02;;;;;;;1.83;0.50;;;8.90;99.90;;;;;;7344465;32;20261;-55
2023/12/24 03:34:04;;;;;;;2.20;0.40;;;8.90;99.90;;;;;;7353733;32;20508;-55
2023/12/24 03:38:06;;;;;;;0.50;0.50;;;9.00;99.90;;;;;;7357389;32;20095;-55
2023/12/24 03:42:09;;;;;;;0.43;0.37;;;8.90;99.90;;;;;;7361951;32;20206;-55
2023/12/24 03:46:11;;;;;;;0.40;0.30;;;9.00;99.90;;;;;;7362035;32;20143;-55
2023/12/24 03:50:13;;;;;;;1.00;0.40;;;9.00;99.90;;;;;;7348343;32;20329;-55
2023/12/24 03:54:15;;;;;;;2.47;0.50;;;9.00;99.90;;;;;;7355553;32;20222;-56
2023/12/24 03:58:17;;;;;;;1.15;0.40;;;9.00;99.90;;;;;;7363827;32;20139;-55
2023/12/24 04:02:18;;;;;;;0.60;0.32;;;9.00;99.90;;;;;;7361083;32;20701;-56
2023/12/24 04:06:20;;;;;;;1.40;0.50;;;9.00;99.90;;;;;;7361955;32;20556;-55
2023/12/24 04:10:22;;;;;;;0.85;0.50;;;9.00;99.90;;;;;;7360315;32;20289;-55
2023/12/24 04:14:24;;;;;;;0.65;0.40;;;9.00;99.90;;;;;;7355299;32;20508;-55
2023/12/24 04:18:26;;;;;;;1.85;0.45;;;9.10;99.90;;;;;;7348423;32;20146;-54
2023/12/24 04:22:28;;;;;;;2.00;0.40;;;9.10;99.90;;;;;;7355101;32;20111;-55
2023/12/24 04:26:30;;;;;;;0.90;0.30;;;9.10;99.90;;;;;;7357174;32;20582;-55
2023/12/24 04:30:32;;;;;;;0.50;0.32;;;9.10;99.90;;;;;;7343821;32;20192;-55
2023/12/24 04:34:34;;;;;;;0.65;0.30;;;9.10;99.90;;;;;;7361170;32;20559;-55
2023/12/24 04:38:35;;;;;;;1.58;0.50;;;9.10;99.90;;;;;;7357134;32;20190;-55
2023/12/24 04:42:42;;;;;;;1.70;0.40;;;9.10;99.90;;;;;;7357306;32;20186;-55
2023/12/24 04:46:45;;;;;;;0.75;0.40;;;9.10;99.90;;;;;;7352704;32;20796;-55
2023/12/24 04:50:47;;;;;;;0.70;0.45;;;9.20;99.90;;;;;;7353684;32;20189;-55
2023/12/24 04:54:49;;;;;;;0.60;0.35;;;9.20;99.90;;;;;;7353219;32;20506;-56
2023/12/24 04:58:51;;;;;;;1.05;0.70;;;9.20;99.90;;;;;;7358472;32;20156;-55
2023/12/24 05:02:53;;;;;;;1.12;0.40;;;9.20;99.90;;;;;;7360405;32;20194;-55
2023/12/24 05:06:55;;;;;;;0.62;0.60;;;9.20;99.90;;;;;;7357097;32;20237;-56
2023/12/24 05:10:57;;;;;;;1.35;0.60;;;9.20;99.90;;;;;;7364937;32;20259;-57
2023/12/24 05:15:01;;;;;;;3.00;0.88;;;9.10;99.90;;;;;;7343303;32;20133;-56
2023/12/24 05:19:03;;;;;;;1.10;0.80;;;9.10;99.90;;;;;;7366791;32;20119;-55
2023/12/24 05:23:04;;;;;;;0.98;0.73;;;9.10;99.90;;;;;;7356457;32;20111;-55
2023/12/24 05:27:06;;;;;;;1.05;0.82;;;9.10;99.90;;;;;;7354239;32;20098;-55
2023/12/24 05:31:08;;;;;;;1.42;0.50;;;9.20;99.90;;;;;;7355656;32;20115;-55
2023/12/24 05:35:10;;;;;;;0.57;0.50;;;9.10;99.90;;;;;;7362138;32;20186;-55
2023/12/24 05:39:12;;;;;;;0.60;0.50;;;9.10;99.90;;;;;;7357269;32;20148;-55
2023/12/24 05:43:13;;;;;;;1.58;0.60;;;9.10;99.90;;;;;;7354169;32;20551;-56
2023/12/24 05:47:15;;;;;;;0.55;0.43;;;9.00;99.90;;;;;;7359471;32;20365;-55
2023/12/24 05:51:17;;;;;;;0.43;0.43;;;9.10;99.90;;;;;;7368613;32;20321;-56
2023/12/24 05:55:19;;;;;;;0.40;0.40;;;9.00;99.90;;;;;;7363738;32;20118;-55
2023/12/24 05:59:22;;;;;;;0.88;0.45;;;9.00;99.90;;;;;;7358103;32;20200;-55
2023/12/24 06:03:25;;;;;;;0.40;0.40;;;9.10;99.90;;;;;;7352633;32;20141;-55
2023/12/24 06:07:26;;;;;;;1.12;0.50;;;9.10;99.90;;;;;;7361265;32;20201;-55
2023/12/24 06:11:29;;;;;;;0.40;0.40;;;9.10;99.90;;;;;;7352096;32;20133;-54
2023/12/24 06:15:31;;;;;;;1.80;0.50;;;9.10;99.90;;;;;;7353108;32;20115;-54
2023/12/24 06:19:32;;;;;;;0.57;0.45;;;9.20;99.90;;;;;;7353467;32;20525;-55
2023/12/24 06:23:34;;;;;;;0.50;0.50;;;9.10;99.90;;;;;;7359988;32;20142;-54
2023/12/24 06:27:36;;;;;;;0.80;0.60;;;9.20;99.90;;;;;;7356973;32;20107;-55
2023/12/24 06:31:38;;;;;;;0.80;0.60;;;9.20;99.90;;;;;;7362262;32;20591;-55
2023/12/24 06:35:40;;;;;;;0.70;0.60;;;9.20;99.90;;;;;;7358661;32;20576;-54
2023/12/24 06:39:42;;;;;;;0.95;0.50;;;9.20;99.90;;;;;;7359338;32;20241;-54
2023/12/24 06:43:43;;;;;;;0.50;0.50;;;9.20;99.90;;;;;;7354797;32;20219;-55
2023/12/24 06:47:45;;;;;;;0.50;0.50;;;9.20;99.90;;;;;;7358800;32;20467;-54
2023/12/24 06:51:47;;;;;;;1.00;0.43;;;9.30;99.90;;;;;;7358417;32;20234;-54
2023/12/24 06:55:49;;;;;;;0.68;0.35;;;9.30;99.90;;;;;;7351133;32;20159;-54
2023/12/24 06:59:50;;;;;;;1.05;0.40;;;9.30;99.90;;;;;;7358056;32;20573;-55
2023/12/24 07:03:52;;;;;;;0.68;0.30;;;9.30;99.90;;;;;;7356610;32;20185;-54
2023/12/24 07:07:54;;;;;;;0.60;0.30;;;9.30;99.90;;;;;;7368135;32;20533;-54
2023/12/24 07:11:56;;;;;;;0.37;0.37;;;9.40;99.90;;;;;;7371389;32;20715;-55
2023/12/24 07:15:59;;;;;;;0.55;0.30;;;9.40;99.90;;;;;;7359984;32;20277;-55
2023/12/24 07:20:01;;;;;;;0.90;0.40;;;9.40;99.90;;;;;;7361957;32;20220;-56
2023/12/24 07:24:03;;;;;;;0.90;0.32;;;9.40;99.90;;;;;;7354238;32;20197;-55
2023/12/24 07:28:05;;;;;;;0.40;0.40;;;9.40;99.90;;;;;;7366787;32;20123;-55
2023/12/24 07:32:06;;;;;;;0.45;0.30;;;9.50;99.90;;;;;;7362188;32;20119;-55
2023/12/24 07:36:08;;;;;;;0.50;0.40;;;9.50;99.90;;;;;;7360931;32;20186;-55
2023/12/24 07:40:10;;;;;;;0.45;0.40;;;9.50;99.90;;;;;;7361932;32;20111;-56
2023/12/24 07:44:12;;;;;;;0.95;0.40;;;9.50;99.90;;;;;;7361310;32;20715;-55
2023/12/24 07:48:14;;;;;;;0.65;0.40;;;9.50;99.90;;;;;;7363011;32;20207;-57
2023/12/24 07:52:16;;;;;;;0.30;0.30;;;9.60;99.90;;;;;;7361671;32;20245;-57
2023/12/24 07:56:18;;;;;;;0.80;0.50;;;9.60;99.90;;;;;;7367993;32;20934;-58
2023/12/24 08:00:19;;;;;;;1.02;0.30;;;9.60;99.90;;;;;;7362236;32;20103;-55
2023/12/24 08:04:21;;;;;;;0.68;0.50;;;9.60;99.90;;;;;;7360483;32;20123;-56
2023/12/24 08:08:23;;;;;;;1.00;0.47;;;9.70;99.90;;;;;;7359356;32;20124;-57
2023/12/24 08:12:25;;;;;;;1.35;0.47;;;9.70;99.90;;;;;;7354971;32;20099;-57
2023/12/24 08:16:26;;;;;;;1.23;0.50;;;9.70;99.90;;;;;;7355934;32;20269;-57
2023/12/24 08:20:28;;;;;;;0.95;0.30;;;9.70;99.90;;;;;;7363651;32;20287;-57
2023/12/24 08:24:30;;;;;;;0.32;0.30;;;9.70;99.90;;;;;;7357523;32;20295;-57
2023/12/24 08:28:32;;;;;;;1.55;0.60;;;9.70;99.90;;;;;;7356683;32;20257;-57
2023/12/24 08:32:33;;;;;;;0.75;0.40;;;9.70;99.90;;;;;;7362338;32;20412;-57
2023/12/24 08:36:36;;;;;;;0.95;0.30;;;9.70;99.90;;;;;;7357892;32;20144;-57
2023/12/24 08:40:37;;;;;;;0.30;0.30;;;9.70;99.90;;;;;;7361270;32;20868;-57
2023/12/24 08:44:39;;;;;;;1.33;0.37;;;9.70;99.90;;;;;;7365690;32;20130;-56
2023/12/24 08:48:41;;;;;;;1.10;0.40;;;9.70;99.90;;;;;;7369294;32;20501;-56
2023/12/24 08:52:43;;;;;;;0.95;0.75;;;9.70;99.90;;;;;;7361099;32;20272;-56
2023/12/24 08:56:45;;;;;;;0.70;0.60;;;9.70;99.90;;;;;;7363002;32;20266;-56
2023/12/24 09:00:46;;;;;;;0.50;0.50;;;9.70;99.90;;;;;;7363559;32;20169;-57
2023/12/24 09:04:49;;;;;;;1.02;0.60;;;9.70;99.90;;;;;;7369026;32;20103;-56
2023/12/24 09:08:51;;;;;;;1.05;0.40;;;9.70;99.90;;;;;;7366828;32;20143;-56
2023/12/24 09:12:53;;;;;;;0.40;0.40;;;9.70;99.90;;;;;;7361781;32;20589;-56
2023/12/24 09:16:55;;;;;;;1.15;0.30;;;9.70;99.90;;;;;;7361120;32;20139;-57
2023/12/24 09:20:57;;;;;;;0.32;0.30;;;9.70;99.90;;;;;;7355691;32;20130;-57
2023/12/24 09:24:58;;;;;;;0.98;0.50;;;9.70;99.90;;;;;;7355025;32;20997;-58
2023/12/24 09:29:01;;;;;;;0.55;0.20;;;9.70;99.90;;;;;;7358312;32;20811;-57
2023/12/24 09:33:03;;;;;;;0.57;0.40;;;9.80;99.90;;;;;;7355741;32;20512;-56
2023/12/24 09:37:05;;;;;;;0.52;0.37;;;9.80;99.90;;;;;;7359809;32;20230;-58
2023/12/24 09:41:07;;;;;;;0.40;0.40;;;9.80;99.90;;;;;;7358287;32;20103;-57
2023/12/24 09:45:08;;;;;;;1.02;0.50;;;9.80;99.90;;;;;;7358102;32;20277;-56
2023/12/24 09:49:10;;;;;;;0.43;0.40;;;9.80;99.90;;;;;;7351949;32;20383;-57
2023/12/24 09:53:12;;;;;;;0.60;0.40;;;9.80;99.90;;;;;;7360868;32;20122;-57
2023/12/24 09:57:14;;;;;;;0.30;0.30;;;9.90;99.90;;;;;;7352623;32;20127;-57
2023/12/24 10:01:16;;;;;;;1.67;0.30;;;9.90;99.90;;;;;;7359492;32;20202;-57
2023/12/24 10:05:17;;;;;;;1.87;0.75;;;10.00;99.90;;;;;;7360779;32;20106;-57
2023/12/24 10:09:23;;;;;;;0.65;0.40;;;10.00;99.90;;;;;;7358449;32;20137;-56
2023/12/24 10:13:25;;;;;;;0.50;0.50;;;10.00;99.90;;;;;;7352766;32;20115;-57
2023/12/24 10:17:28;;;;;;;0.37;0.37;;;10.10;99.90;;;;;;7350087;32;20133;-57
2023/12/24 10:21:30;;;;;;;2.40;0.47;;;10.10;99.90;;;;;;7353667;32;20515;-57
2023/12/24 10:25:32;;;;;;;1.17;0.50;;;10.10;99.90;;;;;;7359602;32;20825;-56
2023/12/24 10:29:39;;;;;;;2.12;0.70;;;10.10;99.90;;;;;;7364683;32;21402;-57
2023/12/24 10:33:41;;;;;;;1.75;0.55;;;10.30;99.90;;;;;;7361454;32;20118;-58
2023/12/24 10:37:43;;;;;;;1.27;0.50;;;10.10;99.90;;;;;;7366868;32;20099;-56
2023/12/24 10:41:45;;;;;;;0.50;0.40;;;10.20;99.90;;;;;;7357051;32;20179;-57
2023/12/24 10:45:47;;;;;;;0.98;0.60;;;10.20;99.90;;;;;;7368704;32;20248;-58
2023/12/24 10:49:49;;;;;;;1.90;0.50;;;10.30;99.90;;;;;;7364145;32;20197;-57
2023/12/24 10:53:51;;;;;;;1.52;0.50;;;10.30;99.90;;;;;;7360377;32;20129;-58
2023/12/24 10:58:18;;;;;;;0.98;0.40;;;10.30;99.90;;;;;;7362605;32;20138;-57
2023/12/24 11:02:21;;;;;;;1.33;0.60;;;10.40;99.90;;;;;;7359036;32;20714;-63
2023/12/24 11:06:38;;;;;;;1.58;0.60;;;10.50;99.90;;;;;;7364766;32;20157;-63
2023/12/24 11:10:42;;;;;;;0.68;0.50;;;10.80;99.90;;;;;;7359006;32;20103;-63
2023/12/24 11:14:48;;;;;;;2.00;0.70;;;10.80;99.90;;;;;;7363397;32;20672;-58
2023/12/24 11:18:50;;;;;;;2.35;0.70;;;10.80;99.90;;;;;;7363596;32;20185;-57
2023/12/24 11:23:18;;;;;;;1.92;0.80;;;10.70;99.90;;;;;;7361861;32;20159;-55
2023/12/24 11:27:20;;;;;;;1.10;0.65;;;10.60;99.90;;;;;;7359037;32;20472;-57
2023/12/24 11:31:26;;;;;;;2.20;1.00;;;10.50;99.90;;;;;;7362032;32;20178;-56
2023/12/24 11:35:53;;;;;;;1.70;0.73;;;10.50;99.90;;;;;;7360429;32;20137;-56
2023/12/24 11:40:02;;;;;;;1.42;1.00;;;10.50;99.90;;;;;;7359766;32;20240;-57
2023/12/24 11:44:04;;;;;;;1.80;0.80;;;10.50;99.90;;;;;;7359276;32;20095;-57
2023/12/24 11:48:06;;;;;;;3.53;1.20;;;10.40;99.90;;;;;;7358095;32;20136;-58
2023/12/24 11:52:09;;;;;;;2.37;1.25;;;10.40;99.90;;;;;;7359569;32;20371;-56
2023/12/24 11:56:18;;;;;;;1.40;1.20;;;10.40;99.90;;;;;;7358201;32;20174;-57
2023/12/24 12:00:25;;;;;;;2.45;1.50;;;10.40;99.90;;;;;;7361296;32;20666;-58
2023/12/24 12:04:28;;;;;;;2.10;1.10;;;10.50;99.90;;;;;;7365170;32;20562;-58
2023/12/24 12:08:30;;;;;;;2.55;1.10;;;10.50;99.90;;;;;;7354473;32;20170;-58
2023/12/24 12:12:32;;;;;;;2.50;1.27;;;10.50;99.90;;;;;;7364666;32;20118;-58
2023/12/24 12:16:34;;;;;;;4.30;1.45;;;10.60;99.90;;;;;;7360880;32;20259;-57
2023/12/24 12:20:36;;;;;;;4.12;1.33;;;10.60;99.90;;;;;;7362047;32;20614;-57
2023/12/24 12:24:38;;;;;;;1.75;1.00;;;10.60;99.90;;;;;;7360483;32;20193;-58
2023/12/24 12:28:40;;;;;;;2.67;1.00;;;10.60;99.90;;;;;;7357612;32;20102;-58
2023/12/24 12:32:41;;;;;;;3.37;1.05;;;10.60;99.90;;;;;;7362549;32;20262;-57
2023/12/24 12:36:43;;;;;;;2.45;0.80;;;10.70;99.90;;;;;;7360227;32;20219;-57
2023/12/24 12:40:46;;;;;;;2.30;0.82;;;10.60;99.90;;;;;;7358965;32;20213;-57
2023/12/24 12:44:50;;;;;;;1.17;0.62;;;10.60;99.90;;;;;;7355085;32;20532;-57
2023/12/24 12:48:52;;;;;;;1.37;0.50;;;10.60;99.90;;;;;;7366265;32;20571;-55
2023/12/24 12:52:54;;;;;;;2.37;0.40;;;10.50;99.90;;;;;;7360490;32;20235;-56
2023/12/24 12:56:57;;;;;;;0.60;0.47;;;10.50;99.90;;;;;;7366619;32;20133;-56
2023/12/24 13:01:00;;;;;;;1.83;0.47;;;10.50;99.90;;;;;;7361169;32;20178;-56
2023/12/24 13:05:03;;;;;;;1.00;0.45;;;10.50;99.90;;;;;;7357443;32;20219;-56
2023/12/24 13:09:09;;;;;;;1.02;0.70;;;10.50;99.90;;;;;;7362484;32;20230;-58
2023/12/24 13:13:19;;;;;;;1.40;0.65;;;10.50;99.90;;;;;;7361484;32;20112;-58
2023/12/24 13:17:22;;;;;;;0.85;0.55;;;10.50;99.90;;;;;;7354109;32;20147;-56
2023/12/24 13:21:24;;;;;;;1.42;0.80;;;10.50;99.90;;;;;;7360221;32;20799;-57
2023/12/24 13:25:30;;;;;;;1.05;0.70;;;10.50;99.90;;;;;;7360021;32;20133;-59
2023/12/24 13:29:35;;;;;;;1.20;0.90;;;10.50;99.90;;;;;;7356417;32;20161;-54
2023/12/24 13:33:36;;;;;;;0.65;0.52;;;10.50;99.90;;;;;;7355950;32;20237;-56
2023/12/24 13:37:38;;;;;;;2.47;0.70;;;10.50;99.90;;;;;;7364752;32;20384;-56
2023/12/24 13:41:40;;;;;;;3.30;0.70;;;10.50;99.90;;;;;;7361863;32;20776;-56
2023/12/24 13:45:42;;;;;;;0.85;0.77;;;10.60;99.90;;;;;;7360721;32;20182;-57
2023/12/24 13:49:44;;;;;;;1.17;0.60;;;10.60;99.90;;;;;;7355461;32;20220;-58
2023/12/24 13:53:47;;;;;;;1.20;0.90;;;10.70;99.90;;;;;;7361932;32;20137;-58
2023/12/24 13:57:50;;;;;;;1.35;0.80;;;10.60;99.90;;;;;;7356574;32;20182;-57
2023/12/24 14:01:52;;;;;;;2.17;0.90;;;10.60;99.90;;;;;;7357442;32;20104;-56
2023/12/24 14:05:55;;;;;;;1.30;0.80;;;10.60;99.90;;;;;;7359549;32;20589;-56
2023/12/24 14:09:57;;;;;;;2.33;1.00;;;10.70;99.90;;;;;;7363413;32;20125;-57
2023/12/24 14:13:58;;;;;;;1.83;1.08;;;10.70;99.90;;;;;;7371137;32;20456;-56
2023/12/24 14:18:00;;;;;;;1.37;1.00;;;10.70;99.90;;;;;;7370355;32;20206;-56
2023/12/24 14:22:02;;;;;;;1.05;0.90;;;10.70;99.90;;;;;;7361113;32;20134;-66
2023/12/24 14:26:04;;;;;;;1.73;0.98;;;10.90;99.90;;;;;;7360470;32;20677;-66
2023/12/24 14:30:13;;;;;;;1.75;1.02;;;11.00;99.90;;;;;;7361510;32;20233;-64
2023/12/24 14:34:15;;;;;;;3.15;1.10;;;11.10;99.90;;;;;;7363209;32;20115;-58
2023/12/24 14:38:17;;;;;;;2.75;1.10;;;11.10;99.90;;;;;;7356815;32;20119;-57
2023/12/24 14:42:19;;;;;;;2.90;1.45;;;11.00;99.90;;;;;;7356740;32;20213;-59
2023/12/24 14:46:21;;;;;;;4.22;1.20;;;10.90;99.90;;;;;;7364724;32;20188;-58
2023/12/24 14:50:22;;;;;;;2.17;1.10;;;10.90;99.90;;;;;;7361727;32;21059;-58
2023/12/24 14:54:24;;;;;;;3.37;1.20;;;10.90;99.90;;;;;;7359349;32;20212;-57
2023/12/24 14:58:26;;;;;;;3.15;1.40;;;10.90;99.90;;;;;;7361739;32;20106;-59
2023/12/24 15:02:28;;;;;;;3.92;1.40;;;10.80;99.90;;;;;;7363528;32;20122;-58
2023/12/24 15:06:31;;;;;;;3.42;1.50;;;10.90;99.90;;;;;;7359417;32;20127;-58
2023/12/24 15:10:33;;;;;;;3.03;1.00;;;10.90;99.90;;;;;;7362086;32;20199;-56
2023/12/24 15:14:35;;;;;;;2.08;1.33;;;10.90;99.90;;;;;;7361801;32;20107;-56
2023/12/24 15:18:37;;;;;;;4.10;1.48;;;10.90;99.90;;;;;;7347550;32;20538;-57
2023/12/24 15:22:38;;;;;;;2.22;1.50;;;11.00;99.90;;;;;;7365655;32;20107;-57
2023/12/24 15:26:43;;;;;;;2.42;1.20;;;11.00;99.90;;;;;;7362783;32;20629;-58
2023/12/24 15:30:48;;;;;;;2.78;1.37;;;11.10;99.90;;;;;;7364750;32;20125;-56
2023/12/24 15:34:50;;;;;;;4.37;1.60;;;11.10;99.90;;;;;;7363315;32;20254;-57
2023/12/24 15:38:51;;;;;;;4.90;1.70;;;11.10;99.90;;;;;;7359568;32;20517;-56
2023/12/24 15:42:54;;;;;;;2.90;1.23;;;11.30;99.90;;;;;;7359989;32;20121;-56
2023/12/24 15:46:56;;;;;;;3.50;1.50;;;11.10;99.90;;;;;;7364257;32;20184;-57
2023/12/24 15:50:58;;;;;;;4.97;1.67;;;11.20;99.90;;;;;;7364352;32;20127;-57
2023/12/24 15:55:00;;;;;;;3.40;2.25;;;11.20;99.90;;;;;;7363099;32;20719;-55
2023/12/24 15:59:02;;;;;;;3.35;1.58;;;11.20;99.90;;;;;;7362356;32;20125;-57
2023/12/24 16:03:04;;;;;;;5.18;1.70;;;11.20;99.90;;;;;;7356074;32;20202;-57
2023/12/24 16:07:05;;;;;;;2.40;1.55;;;11.20;99.90;;;;;;7360160;32;20129;-56
2023/12/24 16:11:08;;;;;;;2.87;1.98;;;11.30;99.90;;;;;;7359077;32;20103;-57
2023/12/24 16:15:10;;;;;;;2.80;2.05;;;11.30;99.90;;;;;;7363815;32;20256;-55
2023/12/24 16:19:12;;;;;;;4.45;2.55;;;11.20;99.90;;;;;;7362510;32;20117;-56
2023/12/24 16:23:14;;;;;;;5.57;2.58;;;11.20;99.90;;;;;;7358990;32;20148;-56
2023/12/24 16:27:16;;;;;;;2.45;1.90;;;11.20;99.90;;;;;;7359393;32;20281;-55
2023/12/24 16:31:18;;;;;;;4.10;2.90;;;11.10;99.90;;;;;;7360584;32;20178;-56
2023/12/24 16:35:20;;;;;;;6.30;3.03;;;11.10;99.90;;;;;;7354520;32;20261;-56
2023/12/24 16:39:21;;;;;;;5.53;2.72;;;11.10;99.90;;;;;;7359223;32;20140;-57
2023/12/24 16:43:23;;;;;;;4.65;2.42;;;11.10;99.90;;;;;;7359568;32;20193;-56
2023/12/24 16:47:25;;;;;;;7.55;3.10;;;11.00;99.90;;;;;;7359841;32;20154;-58
2023/12/24 16:51:27;;;;;;;5.10;3.03;;;11.00;99.90;;;;;;7358350;32;20121;-61
2023/12/24 16:55:28;;;;;;;8.13;3.35;;;11.00;99.90;;;;;;7354709;32;20195;-57
2023/12/24 16:59:34;;;;;;;7.32;3.45;;;11.00;99.90;;;;;;7357781;32;20099;-57
2023/12/24 17:03:37;;;;;;;7.03;3.78;;;11.00;99.90;;;;;;7354597;32;20114;-58
2023/12/24 17:07:39;;;;;;;7.53;2.87;;;11.00;99.90;;;;;;7352740;32;20153;-58
2023/12/24 17:11:40;;;;;;;5.30;3.58;;;11.00;99.90;;;;;;7369386;32;20241;-55
2023/12/24 17:15:46;;;;;;;5.97;3.17;;;11.00;99.90;;;;;;7359509;32;20183;-56
2023/12/24 17:19:47;;;;;;;5.85;3.58;;;11.00;99.90;;;;;;7362776;32;20126;-57
2023/12/24 17:23:49;;;;;;;6.72;3.22;;;11.00;99.90;;;;;;7370067;32;20239;-56
2023/12/24 17:27:51;;;;;;;5.95;3.08;;;11.00;99.90;;;;;;7359564;32;20806;-56
2023/12/24 17:31:53;;;;;;;6.78;3.17;;;11.00;99.90;;;;;;7356346;32;20226;-57
2023/12/24 17:35:55;;;;;;;6.20;3.83;;;11.00;99.90;;;;;;7355540;32;20260;-57
2023/12/24 17:39:56;;;;;;;7.57;3.30;;;11.00;99.90;;;;;;7359527;32;20206;-57
2023/12/24 17:43:58;;;;;;;6.57;3.03;;;11.00;99.90;;;;;;7359840;32;20118;-56
2023/12/24 17:48:06;;;;;;;6.20;3.25;;;11.10;99.90;;;;;;7356291;32;20123;-54
2023/12/24 17:52:20;;;;;;;5.53;2.37;;;11.00;99.90;;;;;;7362416;32;20246;-56
2023/12/24 17:56:22;;;;;;;9.32;3.03;;;11.10;99.90;;;;;;7362055;32;20216;-55
2023/12/24 18:00:24;;;;;;;7.22;2.35;;;11.00;99.90;;;;;;7360303;32;20297;-54
2023/12/24 18:04:25;;;;;;;5.75;2.12;;;11.00;99.90;;;;;;7357659;32;20210;-57
2023/12/24 18:08:27;;;;;;;7.82;2.75;;;11.00;99.90;;;;;;7362194;32;20638;-56
2023/12/24 18:12:29;;;;;;;5.20;2.33;;;11.10;99.90;;;;;;7358132;32;20119;-55
2023/12/24 18:16:31;;;;;;;6.65;2.15;;;11.00;99.90;;;;;;7356195;32;20253;-55
2023/12/24 18:20:33;;;;;;;6.60;2.90;;;11.00;99.90;;;;;;7363538;32;20278;-55
2023/12/24 18:24:34;;;;;;;6.87;2.42;;;11.00;99.90;;;;;;7360858;32;20148;-56
2023/12/24 18:28:36;;;;;;;5.72;2.55;;;11.00;99.90;;;;;;7360225;32;20132;-55
2023/12/24 18:32:38;;;;;;;11.23;3.70;;;10.90;99.90;;;;;;7359066;32;20123;-56
2023/12/24 18:36:40;;;;;;;7.85;3.03;;;10.90;99.90;;;;;;7350991;32;20592;-56
2023/12/24 18:40:42;;;;;;;9.70;3.10;;;10.90;99.90;;;;;;7350489;32;20111;-54
2023/12/24 18:44:43;;;;;;;9.52;2.97;;;10.90;99.90;;;;;;7355341;32;20099;-56
2023/12/24 18:48:46;;;;;;;10.07;2.85;;;10.90;99.90;;;;;;7357198;32;20507;-56
2023/12/24 18:52:48;;;;;;;9.50;2.92;;;11.00;99.90;;;;;;7358191;32;20151;-55
2023/12/24 18:56:50;;;;;;;10.27;2.85;;;10.90;99.90;;;;;;7363709;32;20110;-55
2023/12/24 19:00:51;;;;;;;12.10;2.60;;;11.00;99.90;;;;;;7368222;32;20264;-55
2023/12/24 19:04:53;;;;;;;12.35;3.33;;;11.00;99.90;;;;;;7363219;32;20326;-55
2023/12/24 19:08:58;;;;;;;10.05;3.05;;;11.00;99.90;;;;;;7357326;32;20244;-55
2023/12/24 19:13:00;;;;;;;11.57;3.37;;;11.00;99.90;;;;;;7362793;32;20521;-54
2023/12/24 19:17:02;;;;;;;13.32;3.08;;;11.00;99.90;;;;;;7363525;32;20238;-54
2023/12/24 19:21:04;;;;;;;13.93;3.33;;;11.00;99.90;;;;;;7363541;32;20794;-55
2023/12/24 19:25:06;;;;;;;12.15;2.50;;;11.00;99.90;;;;;;7360807;32;20256;-56
2023/12/24 19:29:08;;;;;;;10.02;2.22;;;11.00;99.90;;;;;;7362410;32;20266;-52
2023/12/24 19:33:14;;;;;;;14.35;2.92;;;11.00;99.90;;;;;;7360212;32;20263;-59
2023/12/24 19:37:16;;;;;;;13.10;3.03;;;11.30;99.90;;;;;;7356464;32;20110;-60
2023/12/24 19:41:19;;;;;;;13.52;2.67;;;11.40;99.90;;;;;;7359234;32;20100;-59
2023/12/24 19:45:21;;;;;;;14.38;3.25;;;11.50;99.90;;;;;;7367151;32;20123;-56
2023/12/24 19:49:22;;;;;;;12.37;2.40;;;11.50;99.90;;;;;;7363240;32;20251;-55
2023/12/24 19:53:24;;;;;;;11.52;3.00;;;11.20;99.90;;;;;;7357058;32;20121;-55
2023/12/24 19:57:26;;;;;;;11.55;2.67;;;11.10;99.90;;;;;;7358904;32;20524;-56
2023/12/24 20:01:28;;;;;;;13.05;2.83;;;10.90;99.90;;;;;;7357235;32;20118;-56
2023/12/24 20:05:41;;;;;;;13.23;2.35;;;10.80;99.90;;;;;;7363053;32;20729;-56
2023/12/24 20:09:43;;;;;;;10.68;2.83;;;10.90;99.90;;;;;;7361035;32;20426;-55
2023/12/24 20:13:45;;;;;;;11.82;2.42;;;10.80;99.90;;;;;;7366088;32;20157;-56
2023/12/24 20:17:47;;;;;;;10.55;2.60;;;10.80;99.90;;;;;;7359514;32;20168;-56
2023/12/24 20:21:49;;;;;;;13.40;3.33;;;10.80;99.90;;;;;;7349926;32;20153;-56
2023/12/24 20:25:50;;;;;;;7.40;2.42;;;10.70;99.90;;;;;;7363658;32;20563;-57
2023/12/24 20:29:52;;;;;;;11.55;2.35;;;10.70;99.90;;;;;;7349080;32;20123;-57
2023/12/24 20:33:54;;;;;;;6.78;2.00;;;10.80;99.90;;;;;;7361568;32;20208;-57
2023/12/24 20:37:56;;;;;;;10.57;2.50;;;10.70;99.90;;;;;;7363040;32;20110;-57
2023/12/24 20:41:59;;;;;;;11.82;1.70;;;10.70;99.90;;;;;;7359598;32;20131;-57
2023/12/24 20:46:01;;;;;;;7.00;1.48;;;10.70;99.90;;;;;;7361963;32;20124;-56
2023/12/24 20:50:03;;;;;;;9.70;1.90;;;10.70;99.90;;;;;;7361178;32;20282;-57
2023/12/24 20:54:05;;;;;;;4.97;1.48;;;10.70;99.90;;;;;;7364990;32;20098;-57
2023/12/24 20:58:07;;;;;;;5.00;1.37;;;10.70;99.90;;;;;;7361213;32;20141;-57
2023/12/24 21:02:09;;;;;;;8.35;1.65;;;10.70;99.90;;;;;;7361820;32;20174;-57
2023/12/24 21:06:10;;;;;;;5.55;1.62;;;10.70;99.90;;;;;;7360424;32;20175;-57
2023/12/24 21:10:12;;;;;;;6.18;1.20;;;10.70;99.90;;;;;;7363087;32;20185;-57